createdAt,value
2023-05-05T00:02:17.831Z,7.40
2023-05-05T00:04:46.036Z,6.67
2023-05-05T00:07:15.275Z,6.43
2023-05-05T00:09:46.234Z,6.00
2023-05-05T00:12:14.064Z,6.40
2023-05-05T00:14:42.726Z,6.33
2023-05-05T00:17:10.925Z,5.90
2023-05-05T00:19:38.904Z,6.27
2023-05-05T00:22:07.047Z,6.00
2023-05-05T00:24:36.347Z,6.03
2023-05-05T00:27:04.688Z,5.80
2023-05-05T00:29:34.475Z,5.63
2023-05-05T00:32:02.437Z,5.80
2023-05-05T00:34:30.592Z,5.00
2023-05-05T00:36:58.489Z,5.53
2023-05-05T00:39:26.413Z,5.87
2023-05-05T00:41:55.678Z,5.53
2023-05-05T00:44:38.010Z,5.23
2023-05-05T00:47:07.294Z,5.90
2023-05-05T00:49:36.814Z,5.40
2023-05-05T00:52:06.697Z,5.70
2023-05-05T00:54:35.347Z,5.53
2023-05-05T00:57:05.049Z,5.37
2023-05-05T00:59:34.705Z,5.87
2023-05-05T01:02:02.920Z,6.07
2023-05-05T01:04:31.111Z,6.33
2023-05-05T01:07:08.876Z,5.73
2023-05-05T01:09:43.098Z,6.13
2023-05-05T01:12:25.094Z,5.83
2023-05-05T01:15:02.375Z,5.83
2023-05-05T01:17:38.290Z,6.20
2023-05-05T01:20:18.032Z,6.27
2023-05-05T01:22:52.578Z,5.37
2023-05-05T01:25:57.149Z,5.80
2023-05-05T01:28:39.270Z,5.90
2023-05-05T01:31:22.713Z,5.13
2023-05-05T01:33:59.256Z,5.40
2023-05-05T01:36:32.596Z,5.23
2023-05-05T01:39:03.221Z,5.73
2023-05-05T01:41:34.641Z,5.50
2023-05-05T01:44:07.303Z,5.17
2023-05-05T01:46:36.760Z,5.57
2023-05-05T01:49:06.842Z,6.00
2023-05-05T01:51:35.933Z,6.03
2023-05-05T01:54:07.770Z,5.53
2023-05-05T01:56:38.654Z,5.83
2023-05-05T01:59:07.797Z,6.00
2023-05-05T02:01:40.949Z,5.87
2023-05-05T02:04:11.935Z,6.00
2023-05-05T02:06:42.126Z,5.87
2023-05-05T02:09:12.889Z,6.17
2023-05-05T02:11:41.762Z,6.40
2023-05-05T02:14:11.804Z,5.90
2023-05-05T02:16:41.333Z,5.53
2023-05-05T02:19:12.310Z,6.93
2023-05-05T02:21:40.288Z,5.90
2023-05-05T02:24:08.723Z,5.40
2023-05-05T02:26:40.693Z,5.90
2023-05-05T02:29:16.202Z,5.87
2023-05-05T02:31:47.629Z,6.13
2023-05-05T02:34:26.560Z,6.10
2023-05-05T02:36:59.376Z,5.60
2023-05-05T02:39:33.197Z,5.97
2023-05-05T02:42:05.601Z,5.97
2023-05-05T02:44:35.627Z,5.70
2023-05-05T02:47:05.060Z,5.73
2023-05-05T02:49:35.037Z,6.03
2023-05-05T02:52:03.461Z,6.37
2023-05-05T02:54:35.359Z,5.83
2023-05-05T02:57:12.544Z,6.50
2023-05-05T02:59:50.216Z,6.10
2023-05-05T03:02:28.354Z,6.30
2023-05-05T03:05:05.386Z,6.10
2023-05-05T03:07:42.075Z,5.77
2023-05-05T03:10:13.291Z,6.43
2023-05-05T03:12:49.481Z,6.50
2023-05-05T03:15:27.356Z,6.57
2023-05-05T03:17:56.970Z,6.63
2023-05-05T03:20:27.228Z,6.03
2023-05-05T03:22:57.298Z,6.73
2023-05-05T03:25:42.810Z,6.23
2023-05-05T03:28:12.412Z,5.70
2023-05-05T03:30:41.131Z,6.20
2023-05-05T03:33:09.491Z,6.20
2023-05-05T03:35:39.232Z,6.13
2023-05-05T03:38:09.908Z,6.07
2023-05-05T03:40:44.210Z,6.17
2023-05-05T03:43:15.129Z,6.37
2023-05-05T03:45:43.078Z,6.13
2023-05-05T03:48:11.760Z,5.97
2023-05-05T03:50:42.519Z,7.30
2023-05-05T03:53:10.418Z,6.33
2023-05-05T03:55:39.339Z,6.60
2023-05-05T03:58:07.251Z,6.33
2023-05-05T04:00:35.201Z,5.80
2023-05-05T04:03:03.226Z,6.27
2023-05-05T04:05:31.439Z,6.37
2023-05-05T04:08:01.346Z,5.77
2023-05-05T04:10:29.259Z,6.00
2023-05-05T04:12:57.379Z,6.10
2023-05-05T04:15:25.253Z,6.33
2023-05-05T04:17:53.239Z,6.10
2023-05-05T04:20:21.881Z,6.40
2023-05-05T04:22:52.496Z,6.10
2023-05-05T04:25:22.202Z,6.03
2023-05-05T04:27:51.803Z,6.17
2023-05-05T04:30:20.219Z,6.20
2023-05-05T04:32:48.194Z,6.57
2023-05-05T04:35:16.609Z,5.97
2023-05-05T04:37:45.292Z,6.30
2023-05-05T04:40:13.739Z,6.93
2023-05-05T04:42:43.563Z,6.20
2023-05-05T04:45:13.150Z,6.80
2023-05-05T04:47:41.933Z,6.30
2023-05-05T04:50:13.831Z,6.70
2023-05-05T04:52:42.119Z,5.90
2023-05-05T04:55:11.438Z,6.03
2023-05-05T04:57:39.414Z,6.87
2023-05-05T05:00:10.478Z,6.20
2023-05-05T05:02:38.974Z,6.30
2023-05-05T05:05:07.867Z,6.40
2023-05-05T05:07:35.734Z,6.70
2023-05-05T05:10:04.639Z,6.40
2023-05-05T05:12:33.022Z,6.03
2023-05-05T05:15:00.888Z,6.90
2023-05-05T05:17:30.997Z,6.87
2023-05-05T05:20:04.627Z,7.40
2023-05-05T05:22:34.894Z,7.07
2023-05-05T05:25:03.620Z,7.17
2023-05-05T05:27:31.782Z,7.03
2023-05-05T05:29:59.737Z,6.73
2023-05-05T05:32:28.317Z,6.50
2023-05-05T05:34:57.944Z,6.57
2023-05-05T05:37:29.267Z,6.73
2023-05-05T05:39:57.191Z,7.53
2023-05-05T05:42:27.302Z,6.90
2023-05-05T05:44:55.372Z,7.20
2023-05-05T05:47:23.822Z,6.53
2023-05-05T05:49:52.452Z,6.07
2023-05-05T05:52:23.026Z,6.10
2023-05-05T05:54:51.793Z,6.07
2023-05-05T05:57:22.151Z,5.97
2023-05-05T05:59:50.162Z,5.60
2023-05-05T06:02:19.122Z,5.53
2023-05-05T06:04:47.994Z,4.80
2023-05-05T06:07:16.564Z,4.83
2023-05-05T06:09:46.352Z,4.53
2023-05-05T06:12:14.132Z,4.83
2023-05-05T06:14:42.246Z,4.70
2023-05-05T06:17:10.088Z,4.33
2023-05-05T06:19:39.741Z,4.23
2023-05-05T06:22:08.209Z,4.10
2023-05-05T06:24:36.803Z,3.57
2023-05-05T06:27:06.677Z,3.77
2023-05-05T06:29:34.569Z,3.80
2023-05-05T06:32:02.467Z,3.40
2023-05-05T06:34:30.394Z,3.67
2023-05-05T06:36:58.186Z,3.50
2023-05-05T06:39:26.131Z,3.40
2023-05-05T06:41:54.016Z,3.47
2023-05-05T06:44:23.213Z,3.53
2023-05-05T06:46:51.372Z,2.97
2023-05-05T06:49:19.444Z,3.33
2023-05-05T06:51:47.425Z,3.27
2023-05-05T06:54:15.290Z,3.43
2023-05-05T06:56:43.108Z,3.80
2023-05-05T06:59:11.766Z,3.43
2023-05-05T07:01:41.049Z,3.27
2023-05-05T07:04:08.983Z,3.20
2023-05-05T07:06:36.908Z,3.03
2023-05-05T07:09:05.373Z,3.20
2023-05-05T07:11:33.286Z,3.30
2023-05-05T07:14:01.137Z,3.40
2023-05-05T07:16:29.232Z,2.80
2023-05-05T07:19:00.801Z,3.00
2023-05-05T07:21:28.783Z,3.37
2023-05-05T07:23:56.798Z,3.20
2023-05-05T07:26:24.716Z,3.57
2023-05-05T07:28:53.050Z,3.17
2023-05-05T07:31:22.082Z,3.67
2023-05-05T07:33:50.643Z,3.27
2023-05-05T07:36:19.917Z,3.60
2023-05-05T07:38:48.060Z,3.17
2023-05-05T07:41:15.934Z,2.90
2023-05-05T07:43:44.675Z,3.40
2023-05-05T07:46:14.129Z,3.63
2023-05-05T07:48:42.181Z,3.53
2023-05-05T07:51:10.879Z,2.93
2023-05-05T07:53:40.190Z,3.37
2023-05-05T07:56:08.857Z,3.10
2023-05-05T07:58:36.977Z,3.23
2023-05-05T08:01:06.543Z,3.80
2023-05-05T08:03:34.561Z,3.97
2023-05-05T08:06:09.432Z,3.97
2023-05-05T08:08:37.834Z,3.33
2023-05-05T08:11:07.923Z,3.77
2023-05-05T08:13:36.014Z,3.50
2023-05-05T08:16:04.124Z,3.90
2023-05-05T08:18:31.979Z,3.53
2023-05-05T08:20:59.931Z,3.47
2023-05-05T08:23:27.860Z,3.30
2023-05-05T08:25:55.888Z,3.27
2023-05-05T08:28:25.140Z,3.77
2023-05-05T08:30:53.087Z,3.40
2023-05-05T08:33:21.089Z,3.37
2023-05-05T08:35:50.285Z,3.30
2023-05-05T08:38:19.134Z,3.37
2023-05-05T08:40:47.560Z,3.23
2023-05-05T08:43:15.891Z,3.43
2023-05-05T08:45:46.249Z,2.83
2023-05-05T08:48:14.323Z,3.03
2023-05-05T08:50:48.379Z,3.40
2023-05-05T08:53:18.612Z,3.33
2023-05-05T08:55:51.426Z,3.07
2023-05-05T08:58:19.871Z,3.13
2023-05-05T09:00:49.443Z,3.30
2023-05-05T09:03:18.327Z,3.50
2023-05-05T09:05:46.296Z,3.20
2023-05-05T09:08:14.502Z,2.73
2023-05-05T09:10:42.785Z,3.10
2023-05-05T09:13:10.900Z,3.13
2023-05-05T09:15:41.428Z,3.40
2023-05-05T09:18:12.225Z,2.93
2023-05-05T09:20:41.550Z,3.53
2023-05-05T09:23:10.420Z,3.00
2023-05-05T09:25:38.460Z,3.40
2023-05-05T09:28:11.408Z,3.03
2023-05-05T09:30:40.157Z,4.00
2023-05-05T09:33:08.275Z,3.60
2023-05-05T09:35:54.685Z,3.07
2023-05-05T09:38:23.567Z,3.03
2023-05-05T09:40:52.716Z,3.33
2023-05-05T09:43:21.959Z,3.03
2023-05-05T09:45:50.436Z,2.83
2023-05-05T09:48:25.729Z,3.30
2023-05-05T09:50:55.655Z,3.10
2023-05-05T09:53:24.587Z,3.07
2023-05-05T09:55:56.280Z,3.83
2023-05-05T09:58:25.816Z,3.07
2023-05-05T10:00:54.509Z,2.93
2023-05-05T10:03:22.883Z,2.73
2023-05-05T10:05:52.673Z,3.00
2023-05-05T10:08:23.295Z,3.60
2023-05-05T10:10:53.550Z,3.10
2023-05-05T10:13:22.645Z,3.30
2023-05-05T10:15:52.066Z,2.93
2023-05-05T10:18:24.384Z,3.37
2023-05-05T10:20:59.155Z,2.90
2023-05-05T10:23:36.053Z,2.87
2023-05-05T10:26:06.987Z,2.80
2023-05-05T10:28:35.940Z,2.70
2023-05-05T10:31:20.072Z,2.60
2023-05-05T10:33:55.555Z,2.73
2023-05-05T10:36:24.147Z,2.80
2023-05-05T10:38:56.833Z,2.83
2023-05-05T10:41:25.824Z,2.80
2023-05-05T10:43:56.508Z,2.60
2023-05-05T10:46:25.249Z,3.10
2023-05-05T10:49:00.811Z,3.00
2023-05-05T10:51:40.476Z,2.80
2023-05-05T10:54:21.489Z,2.70
2023-05-05T10:56:51.159Z,2.60
2023-05-05T10:59:42.242Z,3.13
2023-05-05T11:02:20.668Z,3.03
2023-05-05T11:05:12.201Z,2.80
2023-05-05T11:07:40.382Z,2.83
2023-05-05T11:10:11.253Z,2.67
2023-05-05T11:13:16.923Z,2.80
2023-05-05T11:15:44.835Z,3.37
2023-05-05T11:18:35.836Z,2.80
2023-05-05T11:21:17.863Z,3.53
2023-05-05T11:23:56.731Z,2.80
2023-05-05T11:26:51.540Z,2.80
2023-05-05T11:29:19.401Z,2.87
2023-05-05T11:31:48.740Z,3.10
2023-05-05T11:34:29.450Z,3.43
2023-05-05T11:37:04.150Z,3.13
2023-05-05T11:39:49.588Z,3.93
2023-05-05T11:42:25.600Z,2.87
2023-05-05T11:44:54.323Z,3.20
2023-05-05T11:47:32.625Z,2.90
2023-05-05T11:50:19.284Z,2.90
2023-05-05T11:52:48.254Z,3.33
2023-05-05T11:55:23.065Z,3.17
2023-05-05T11:57:52.656Z,2.60
2023-05-05T12:00:21.035Z,2.03
2023-05-05T12:02:57.422Z,2.30
2023-05-05T12:05:25.484Z,2.40
2023-05-05T12:07:58.600Z,1.63
2023-05-05T12:10:26.741Z,2.47
2023-05-05T12:12:56.161Z,2.50
2023-05-05T12:15:31.695Z,2.53
2023-05-05T12:18:02.070Z,2.60
2023-05-05T12:20:32.261Z,2.50
2023-05-05T12:23:04.730Z,2.50
2023-05-05T12:25:37.112Z,2.37
2023-05-05T12:28:07.704Z,2.17
2023-05-05T12:30:36.331Z,2.33
2023-05-05T12:33:05.586Z,2.50
2023-05-05T12:35:35.733Z,2.87
2023-05-05T12:38:04.036Z,2.33
2023-05-05T12:40:45.751Z,2.80
2023-05-05T12:43:29.986Z,2.53
2023-05-05T12:46:09.026Z,2.17
2023-05-05T12:48:38.968Z,2.43
2023-05-05T12:51:18.198Z,2.20
2023-05-05T12:53:46.477Z,2.33
2023-05-05T12:56:34.126Z,2.10
2023-05-05T12:59:04.233Z,1.90
2023-05-05T13:01:32.815Z,1.90
2023-05-05T13:04:08.659Z,1.87
2023-05-05T13:06:37.776Z,1.40
2023-05-05T13:09:06.689Z,1.83
2023-05-05T13:11:38.198Z,1.73
2023-05-05T13:14:08.153Z,1.70
2023-05-05T13:16:36.140Z,1.87
2023-05-05T13:19:04.007Z,1.80
2023-05-05T13:21:31.890Z,1.70
2023-05-05T13:24:18.220Z,1.40
2023-05-05T13:26:47.769Z,2.00
2023-05-05T13:29:17.462Z,1.80
2023-05-05T13:31:46.493Z,2.23
2023-05-05T13:34:14.361Z,2.00
2023-05-05T13:36:43.405Z,1.80
2023-05-05T13:39:11.310Z,1.93
2023-05-05T13:41:39.266Z,1.80
2023-05-05T13:44:07.138Z,1.70
2023-05-05T13:46:36.437Z,1.77
2023-05-05T13:49:04.323Z,1.60
2023-05-05T13:51:32.971Z,1.70
2023-05-05T13:54:00.816Z,1.83
2023-05-05T13:56:29.178Z,2.00
2023-05-05T13:58:57.278Z,2.23
2023-05-05T14:01:25.213Z,2.43
2023-05-05T14:03:56.926Z,1.80
2023-05-05T14:06:25.968Z,1.77
2023-05-05T14:08:54.632Z,2.10
2023-05-05T14:11:22.915Z,2.17
2023-05-05T14:13:52.019Z,1.83
2023-05-05T14:16:20.184Z,1.90
2023-05-05T14:18:48.200Z,1.90
2023-05-05T14:21:17.460Z,2.10
2023-05-05T14:23:45.359Z,1.90
2023-05-05T14:26:13.185Z,1.73
2023-05-05T14:28:42.235Z,1.60
2023-05-05T14:31:11.061Z,1.60
2023-05-05T14:33:38.998Z,1.80
2023-05-05T14:36:08.997Z,1.90
2023-05-05T14:38:38.258Z,1.60
2023-05-05T14:41:06.627Z,1.97
2023-05-05T14:43:34.536Z,2.00
2023-05-05T14:46:06.694Z,2.20
2023-05-05T14:48:35.286Z,1.80
2023-05-05T14:51:03.365Z,1.73
2023-05-05T14:53:31.409Z,2.07
2023-05-05T14:56:02.199Z,1.90
2023-05-05T14:58:31.260Z,2.17
2023-05-05T15:01:00.434Z,2.20
2023-05-05T15:03:28.550Z,2.57
2023-05-05T15:05:56.705Z,2.10
2023-05-05T15:08:24.749Z,2.00
2023-05-05T15:10:52.753Z,1.83
2023-05-05T15:13:21.985Z,2.10
2023-05-05T15:15:50.133Z,2.00
2023-05-05T15:18:18.394Z,1.80
2023-05-05T15:20:46.248Z,2.10
2023-05-05T15:23:14.057Z,1.80
2023-05-05T15:25:41.919Z,1.83
2023-05-05T15:28:09.865Z,2.10
2023-05-05T15:35:25.504Z,2.63
2023-05-05T15:37:54.852Z,2.53
2023-05-05T15:40:23.343Z,2.30
2023-05-05T15:42:51.456Z,2.83
2023-05-05T15:45:19.503Z,2.90
2023-05-05T15:47:47.987Z,3.00
2023-05-05T15:50:16.169Z,2.83
2023-05-05T15:52:47.149Z,3.53
2023-05-05T15:55:16.229Z,3.53
2023-05-05T15:57:44.298Z,4.13
2023-05-05T16:00:13.933Z,4.57
2023-05-05T16:02:42.113Z,4.00
2023-05-05T16:05:10.988Z,4.07
2023-05-05T16:07:39.362Z,4.07
2023-05-05T16:10:10.720Z,3.33
2023-05-05T16:12:38.707Z,3.63
2023-05-05T16:15:08.212Z,4.23
2023-05-05T16:17:36.664Z,4.43
2023-05-05T16:20:05.103Z,3.87
2023-05-05T16:22:33.145Z,3.50
2023-05-05T16:25:01.197Z,4.13
2023-05-05T16:27:30.654Z,3.90
2023-05-05T16:29:59.832Z,4.00
2023-05-05T16:32:28.916Z,3.93
2023-05-05T16:34:57.187Z,3.63
2023-05-05T16:37:25.228Z,4.53
2023-05-05T16:39:53.263Z,3.47
2023-05-05T16:42:21.413Z,3.80
2023-05-05T16:44:50.848Z,3.40
2023-05-05T16:47:19.257Z,3.70
2023-05-05T16:49:47.332Z,3.53
2023-05-05T16:52:15.457Z,2.80
2023-05-05T16:54:43.634Z,2.67
2023-05-05T16:57:11.623Z,3.03
2023-05-05T16:59:41.741Z,2.90
2023-05-05T17:02:11.177Z,2.70
2023-05-05T17:04:39.397Z,2.60
2023-05-05T17:07:07.851Z,3.07
2023-05-05T17:09:36.019Z,2.57
2023-05-05T17:12:05.040Z,2.90
2023-05-05T17:14:33.975Z,2.90
2023-05-05T17:17:02.127Z,2.60
2023-05-05T17:19:32.233Z,2.50
2023-05-05T17:22:02.499Z,2.53
2023-05-05T17:24:30.659Z,2.40
2023-05-05T17:26:59.705Z,2.10
2023-05-05T17:29:27.801Z,2.20
2023-05-05T17:31:55.888Z,2.47
2023-05-05T17:34:23.922Z,2.30
2023-05-05T17:36:53.316Z,2.53
2023-05-05T17:39:21.308Z,2.20
2023-05-05T17:41:49.406Z,2.30
2023-05-05T17:44:17.458Z,3.90
2023-05-05T17:46:45.510Z,4.67
2023-05-05T17:49:17.907Z,8.03
2023-05-05T17:51:46.079Z,8.03
2023-05-05T17:54:19.536Z,3.47
2023-05-05T17:56:47.602Z,4.30
2023-05-05T17:59:20.649Z,2.70
2023-05-05T18:01:48.831Z,2.43
2023-05-05T18:04:17.529Z,2.50
2023-05-05T18:06:45.804Z,2.87
2023-05-05T18:09:15.566Z,2.80
2023-05-05T18:11:46.152Z,2.90
2023-05-05T18:14:16.982Z,2.70
2023-05-05T18:16:49.593Z,2.97
2023-05-05T18:19:17.738Z,2.73
2023-05-05T18:21:45.752Z,2.87
2023-05-05T18:24:20.067Z,2.87
2023-05-05T18:26:51.684Z,2.60
2023-05-05T18:29:21.572Z,3.23
2023-05-05T18:31:51.982Z,3.43
2023-05-05T18:34:20.819Z,2.97
2023-05-05T18:36:49.543Z,3.00
2023-05-05T18:39:19.248Z,3.70
2023-05-05T18:41:47.337Z,3.57
2023-05-05T18:44:16.083Z,3.40
2023-05-05T18:46:44.212Z,2.97
2023-05-05T18:49:12.449Z,4.57
2023-05-05T18:51:41.510Z,7.40
2023-05-05T18:54:12.888Z,9.13
2023-05-05T18:56:42.661Z,4.90
2023-05-05T18:59:10.583Z,5.10
2023-05-05T19:01:38.662Z,4.03
2023-05-05T19:04:15.513Z,3.83
2023-05-05T19:06:53.387Z,2.90
2023-05-05T19:09:21.334Z,2.60
2023-05-05T19:11:50.987Z,2.77
2023-05-05T19:14:19.237Z,3.00
2023-05-05T19:16:47.426Z,3.00
2023-05-05T19:19:15.911Z,2.70
2023-05-05T19:21:44.378Z,2.80
2023-05-05T19:24:14.882Z,2.97
2023-05-05T19:26:47.610Z,3.40
2023-05-05T19:29:19.442Z,3.40
2023-05-05T19:31:47.490Z,6.37
2023-05-05T19:34:17.504Z,3.40
2023-05-05T19:36:47.130Z,2.67
2023-05-05T19:39:18.193Z,2.60
2023-05-05T19:41:46.223Z,3.10
2023-05-05T19:44:14.760Z,3.00
2023-05-05T19:46:46.807Z,3.20
2023-05-05T19:49:18.699Z,2.97
2023-05-05T19:51:49.734Z,3.37
2023-05-05T19:54:17.763Z,3.30
2023-05-05T19:56:46.050Z,3.03
2023-05-05T19:59:14.043Z,2.87
2023-05-05T20:01:42.129Z,3.13
2023-05-05T20:04:12.046Z,3.13
2023-05-05T20:06:40.094Z,3.03
2023-05-05T20:09:08.637Z,2.97
2023-05-05T20:11:36.952Z,3.03
2023-05-05T20:14:07.749Z,3.30
2023-05-05T20:16:36.077Z,3.27
2023-05-05T20:19:05.167Z,3.47
2023-05-05T20:21:36.971Z,3.83
2023-05-05T20:24:06.130Z,3.40
2023-05-05T20:26:35.698Z,3.60
2023-05-05T20:29:03.814Z,3.87
2023-05-05T20:31:34.889Z,3.67
2023-05-05T20:34:06.087Z,3.90
2023-05-05T20:36:35.558Z,4.00
2023-05-05T20:39:03.632Z,3.80
2023-05-05T20:41:31.747Z,4.07
2023-05-05T20:43:59.760Z,4.27
2023-05-05T20:46:31.836Z,3.73
2023-05-05T20:49:00.291Z,4.43
2023-05-05T20:51:31.530Z,4.60
2023-05-05T20:54:01.268Z,4.23
2023-05-05T20:56:29.273Z,4.40
2023-05-05T20:58:57.681Z,4.40
2023-05-05T21:01:25.827Z,4.83
2023-05-05T21:03:53.951Z,4.03
2023-05-05T21:06:22.026Z,4.00
2023-05-05T21:08:49.896Z,4.73
2023-05-05T21:11:19.366Z,4.90
2023-05-05T21:13:47.234Z,4.67
2023-05-05T21:16:15.457Z,5.20
2023-05-05T21:18:46.715Z,5.40
2023-05-05T21:21:14.820Z,5.37
2023-05-05T21:23:42.740Z,4.27
2023-05-05T21:26:10.990Z,4.37
2023-05-05T21:28:41.449Z,4.87
2023-05-05T21:33:40.351Z,4.40
2023-05-05T21:36:08.595Z,4.60
2023-05-05T21:38:36.722Z,3.77
2023-05-05T21:41:04.768Z,4.90
2023-05-05T21:43:32.868Z,5.20
2023-05-05T21:46:03.106Z,4.97
2023-05-05T21:48:31.869Z,5.37
2023-05-05T21:50:59.887Z,4.63
2023-05-05T21:53:28.408Z,4.80
2023-05-05T21:55:57.084Z,4.63
2023-05-05T21:58:25.614Z,4.47
2023-05-05T22:00:53.750Z,3.97
2023-05-05T22:03:23.429Z,4.17
2023-05-05T22:05:51.927Z,4.40
2023-05-05T22:08:21.851Z,5.10
2023-05-05T22:10:49.985Z,4.50
2023-05-05T22:13:18.267Z,5.03
2023-05-05T22:15:47.450Z,4.20
2023-05-05T22:18:15.951Z,4.17
2023-05-05T22:20:46.847Z,4.37
2023-05-05T22:23:16.157Z,4.20
2023-05-05T22:25:44.734Z,4.13
2023-05-05T22:28:21.412Z,4.00
2023-05-05T22:30:49.429Z,3.80
2023-05-05T22:33:17.906Z,2.40
2023-05-05T22:35:47.373Z,2.70
2023-05-05T22:38:15.471Z,1.90
2023-05-05T22:40:43.594Z,2.57
2023-05-05T22:43:11.865Z,2.00
2023-05-05T22:45:40.086Z,2.20
2023-05-05T22:48:08.237Z,2.20
2023-05-05T22:50:36.722Z,2.00
2023-05-05T22:53:07.491Z,2.13
2023-05-05T22:55:35.564Z,1.87
2023-05-05T22:58:03.640Z,2.00
2023-05-05T23:00:31.880Z,1.80
2023-05-05T23:02:59.921Z,1.80
2023-05-05T23:05:28.138Z,1.70
2023-05-05T23:07:56.100Z,1.83
2023-05-05T23:10:25.548Z,2.17
2023-05-05T23:12:53.576Z,1.80
2023-05-05T23:15:22.819Z,1.53
2023-05-05T23:17:50.849Z,2.03
2023-05-05T23:20:18.933Z,1.83
2023-05-05T23:22:47.053Z,1.80
2023-05-05T23:25:14.994Z,1.60
2023-05-05T23:27:44.379Z,1.90
2023-05-05T23:30:13.637Z,1.80
2023-05-05T23:32:42.740Z,1.77
2023-05-05T23:35:11.264Z,1.67
2023-05-05T23:37:39.419Z,1.63
2023-05-05T23:40:09.183Z,1.90
2023-05-05T23:42:37.189Z,2.17
2023-05-05T23:45:07.908Z,1.60
2023-05-05T23:47:36.157Z,2.40
2023-05-05T23:50:04.831Z,2.10
2023-05-05T23:52:32.761Z,2.30
2023-05-05T23:55:00.737Z,2.33
2023-05-05T23:57:28.704Z,2.13
2023-05-05T23:59:56.794Z,2.23
